sensor_id;sensor_type;location;lat;lon;timestamp;P1;durP1;ratioP1;P2;durP2;ratioP2
23812;SDS011;12087;45.190;5.688;2023-08-06T00:01:34;1.95;;;1.02;;
23812;SDS011;12087;45.190;5.688;2023-08-06T00:06:58;0.82;;;0.80;;
23812;SDS011;12087;45.190;5.688;2023-08-06T00:12:20;1.75;;;1.13;;
23812;SDS011;12087;45.190;5.688;2023-08-06T00:17:42;1.67;;;1.10;;
23812;SDS011;12087;45.190;5.688;2023-08-06T00:23:06;1.40;;;0.90;;
23812;SDS011;12087;45.190;5.688;2023-08-06T00:28:28;3.92;;;1.20;;
23812;SDS011;12087;45.190;5.688;2023-08-06T00:33:50;2.22;;;1.10;;
23812;SDS011;12087;45.190;5.688;2023-08-06T00:39:14;3.25;;;1.13;;
23812;SDS011;12087;45.190;5.688;2023-08-06T00:44:36;3.13;;;1.38;;
23812;SDS011;12087;45.190;5.688;2023-08-06T00:49:58;2.45;;;1.23;;
23812;SDS011;12087;45.190;5.688;2023-08-06T00:55:22;3.30;;;1.08;;
23812;SDS011;12087;45.190;5.688;2023-08-06T01:00:44;1.90;;;1.08;;
23812;SDS011;12087;45.190;5.688;2023-08-06T01:06:07;1.83;;;0.98;;
23812;SDS011;12087;45.190;5.688;2023-08-06T01:11:31;2.50;;;0.93;;
23812;SDS011;12087;45.190;5.688;2023-08-06T01:16:59;3.38;;;1.20;;
23812;SDS011;12087;45.190;5.688;2023-08-06T01:22:24;4.38;;;1.70;;
23812;SDS011;12087;45.190;5.688;2023-08-06T01:27:47;5.32;;;1.15;;
23812;SDS011;12087;45.190;5.688;2023-08-06T01:33:14;5.57;;;1.10;;
23812;SDS011;12087;45.190;5.688;2023-08-06T01:38:42;1.50;;;1.08;;
23812;SDS011;12087;45.190;5.688;2023-08-06T01:44:04;3.05;;;1.13;;
23812;SDS011;12087;45.190;5.688;2023-08-06T01:49:27;2.30;;;1.00;;
23812;SDS011;12087;45.190;5.688;2023-08-06T01:54:50;2.88;;;0.90;;
23812;SDS011;12087;45.190;5.688;2023-08-06T02:00:13;2.83;;;1.08;;
23812;SDS011;12087;45.190;5.688;2023-08-06T02:05:35;1.55;;;1.10;;
23812;SDS011;12087;45.190;5.688;2023-08-06T02:10:58;2.28;;;1.55;;
23812;SDS011;12087;45.190;5.688;2023-08-06T02:16:22;2.55;;;1.20;;
23812;SDS011;12087;45.190;5.688;2023-08-06T02:21:44;3.50;;;1.38;;
23812;SDS011;12087;45.190;5.688;2023-08-06T02:27:08;1.98;;;0.90;;
23812;SDS011;12087;45.190;5.688;2023-08-06T02:32:30;1.83;;;1.30;;
23812;SDS011;12087;45.190;5.688;2023-08-06T02:37:55;3.03;;;1.20;;
23812;SDS011;12087;45.190;5.688;2023-08-06T02:43:19;4.90;;;1.65;;
23812;SDS011;12087;45.190;5.688;2023-08-06T02:48:41;3.95;;;1.30;;
23812;SDS011;12087;45.190;5.688;2023-08-06T02:54:03;3.03;;;1.13;;
23812;SDS011;12087;45.190;5.688;2023-08-06T02:59:27;2.65;;;1.20;;
23812;SDS011;12087;45.190;5.688;2023-08-06T03:04:49;2.05;;;1.08;;
23812;SDS011;12087;45.190;5.688;2023-08-06T03:10:11;2.28;;;0.93;;
23812;SDS011;12087;45.190;5.688;2023-08-06T03:15:35;5.05;;;1.30;;
23812;SDS011;12087;45.190;5.688;2023-08-06T03:20:57;3.83;;;1.02;;
23812;SDS011;12087;45.190;5.688;2023-08-06T03:26:19;2.92;;;1.10;;
23812;SDS011;12087;45.190;5.688;2023-08-06T03:31:43;3.80;;;1.10;;
23812;SDS011;12087;45.190;5.688;2023-08-06T03:37:05;1.80;;;0.90;;
23812;SDS011;12087;45.190;5.688;2023-08-06T03:42:27;1.70;;;1.10;;
23812;SDS011;12087;45.190;5.688;2023-08-06T03:47:51;4.20;;;1.23;;
23812;SDS011;12087;45.190;5.688;2023-08-06T03:53:13;3.15;;;0.98;;
23812;SDS011;12087;45.190;5.688;2023-08-06T03:58:35;2.80;;;1.20;;
23812;SDS011;12087;45.190;5.688;2023-08-06T04:03:59;4.05;;;1.25;;
23812;SDS011;12087;45.190;5.688;2023-08-06T04:09:21;6.55;;;1.90;;
23812;SDS011;12087;45.190;5.688;2023-08-06T04:14:43;5.68;;;2.22;;
23812;SDS011;12087;45.190;5.688;2023-08-06T04:20:08;7.20;;;1.75;;
23812;SDS011;12087;45.190;5.688;2023-08-06T04:25:30;5.07;;;1.60;;
23812;SDS011;12087;45.190;5.688;2023-08-06T04:30:52;6.25;;;1.67;;
23812;SDS011;12087;45.190;5.688;2023-08-06T04:36:16;6.40;;;1.50;;
23812;SDS011;12087;45.190;5.688;2023-08-06T04:41:38;8.45;;;1.55;;
23812;SDS011;12087;45.190;5.688;2023-08-06T04:47:00;8.20;;;1.65;;
23812;SDS011;12087;45.190;5.688;2023-08-06T04:52:24;10.52;;;2.03;;
23812;SDS011;12087;45.190;5.688;2023-08-06T04:57:48;9.65;;;1.85;;
23812;SDS011;12087;45.190;5.688;2023-08-06T05:03:10;7.03;;;1.65;;
23812;SDS011;12087;45.190;5.688;2023-08-06T05:08:34;7.85;;;2.15;;
23812;SDS011;12087;45.190;5.688;2023-08-06T05:13:56;8.43;;;2.13;;
23812;SDS011;12087;45.190;5.688;2023-08-06T05:19:18;6.90;;;1.60;;
23812;SDS011;12087;45.190;5.688;2023-08-06T05:24:42;8.63;;;2.08;;
23812;SDS011;12087;45.190;5.688;2023-08-06T05:30:04;7.38;;;1.80;;
23812;SDS011;12087;45.190;5.688;2023-08-06T05:35:27;9.48;;;2.17;;
23812;SDS011;12087;45.190;5.688;2023-08-06T05:40:51;6.82;;;1.88;;
23812;SDS011;12087;45.190;5.688;2023-08-06T05:46:13;10.93;;;2.38;;
23812;SDS011;12087;45.190;5.688;2023-08-06T05:51:35;11.65;;;2.60;;
23812;SDS011;12087;45.190;5.688;2023-08-06T05:56:59;10.85;;;1.88;;
23812;SDS011;12087;45.190;5.688;2023-08-06T06:02:21;10.40;;;2.65;;
23812;SDS011;12087;45.190;5.688;2023-08-06T06:07:43;8.25;;;1.70;;
23812;SDS011;12087;45.190;5.688;2023-08-06T06:13:07;13.80;;;2.30;;
23812;SDS011;12087;45.190;5.688;2023-08-06T06:18:29;9.80;;;2.08;;
23812;SDS011;12087;45.190;5.688;2023-08-06T06:23:51;10.65;;;1.92;;
23812;SDS011;12087;45.190;5.688;2023-08-06T06:29:15;9.20;;;1.88;;
23812;SDS011;12087;45.190;5.688;2023-08-06T06:34:37;6.60;;;1.88;;
23812;SDS011;12087;45.190;5.688;2023-08-06T06:39:59;6.95;;;1.48;;
23812;SDS011;12087;45.190;5.688;2023-08-06T06:45:23;10.02;;;1.77;;
23812;SDS011;12087;45.190;5.688;2023-08-06T06:50:46;5.43;;;1.75;;
23812;SDS011;12087;45.190;5.688;2023-08-06T06:56:09;10.23;;;1.83;;
23812;SDS011;12087;45.190;5.688;2023-08-06T07:01:32;9.65;;;1.95;;
23812;SDS011;12087;45.190;5.688;2023-08-06T07:06:54;9.48;;;1.40;;
23812;SDS011;12087;45.190;5.688;2023-08-06T07:12:17;5.00;;;1.13;;
23812;SDS011;12087;45.190;5.688;2023-08-06T07:17:40;17.83;;;6.88;;
23812;SDS011;12087;45.190;5.688;2023-08-06T07:23:02;7.13;;;1.77;;
23812;SDS011;12087;45.190;5.688;2023-08-06T07:28:25;3.33;;;1.05;;
23812;SDS011;12087;45.190;5.688;2023-08-06T07:33:48;7.63;;;1.65;;
23812;SDS011;12087;45.190;5.688;2023-08-06T07:39:10;5.20;;;1.30;;
23812;SDS011;12087;45.190;5.688;2023-08-06T07:44:32;4.88;;;1.15;;
23812;SDS011;12087;45.190;5.688;2023-08-06T07:49:56;4.55;;;1.35;;
23812;SDS011;12087;45.190;5.688;2023-08-06T07:55:18;7.50;;;1.17;;
23812;SDS011;12087;45.190;5.688;2023-08-06T08:00:41;13.18;;;1.88;;
23812;SDS011;12087;45.190;5.688;2023-08-06T08:06:06;6.38;;;1.00;;
23812;SDS011;12087;45.190;5.688;2023-08-06T08:11:29;6.75;;;1.15;;
23812;SDS011;12087;45.190;5.688;2023-08-06T08:16:51;3.25;;;1.40;;
23812;SDS011;12087;45.190;5.688;2023-08-06T08:22:14;5.68;;;1.30;;
23812;SDS011;12087;45.190;5.688;2023-08-06T08:27:37;5.43;;;1.23;;
23812;SDS011;12087;45.190;5.688;2023-08-06T08:32:59;6.78;;;1.38;;
23812;SDS011;12087;45.190;5.688;2023-08-06T08:38:23;9.32;;;1.50;;
23812;SDS011;12087;45.190;5.688;2023-08-06T08:43:45;4.32;;;1.23;;
23812;SDS011;12087;45.190;5.688;2023-08-06T08:49:09;3.58;;;0.70;;
23812;SDS011;12087;45.190;5.688;2023-08-06T08:54:34;3.75;;;1.20;;
23812;SDS011;12087;45.190;5.688;2023-08-06T08:59:59;6.00;;;1.10;;
23812;SDS011;12087;45.190;5.688;2023-08-06T09:05:21;4.85;;;1.02;;
23812;SDS011;12087;45.190;5.688;2023-08-06T09:10:47;5.78;;;1.35;;
23812;SDS011;12087;45.190;5.688;2023-08-06T09:16:11;3.42;;;0.77;;
23812;SDS011;12087;45.190;5.688;2023-08-06T09:21:33;4.10;;;0.80;;
23812;SDS011;12087;45.190;5.688;2023-08-06T09:27:00;2.55;;;0.80;;
23812;SDS011;12087;45.190;5.688;2023-08-06T09:32:24;2.45;;;0.65;;
23812;SDS011;12087;45.190;5.688;2023-08-06T09:37:46;10.63;;;1.23;;
23812;SDS011;12087;45.190;5.688;2023-08-06T09:43:10;6.22;;;1.15;;
23812;SDS011;12087;45.190;5.688;2023-08-06T09:48:34;3.45;;;0.90;;
23812;SDS011;12087;45.190;5.688;2023-08-06T09:53:56;6.70;;;1.25;;
23812;SDS011;12087;45.190;5.688;2023-08-06T09:59:20;1.65;;;0.80;;
23812;SDS011;12087;45.190;5.688;2023-08-06T10:04:43;3.58;;;0.98;;
23812;SDS011;12087;45.190;5.688;2023-08-06T10:10:07;3.88;;;1.05;;
23812;SDS011;12087;45.190;5.688;2023-08-06T10:15:31;3.53;;;0.98;;
23812;SDS011;12087;45.190;5.688;2023-08-06T10:20:57;3.83;;;1.08;;
23812;SDS011;12087;45.190;5.688;2023-08-06T10:26:24;2.72;;;0.68;;
23812;SDS011;12087;45.190;5.688;2023-08-06T10:31:54;2.38;;;0.85;;
23812;SDS011;12087;45.190;5.688;2023-08-06T10:37:20;2.55;;;0.90;;
23812;SDS011;12087;45.190;5.688;2023-08-06T10:42:42;4.85;;;0.95;;
23812;SDS011;12087;45.190;5.688;2023-08-06T10:48:06;1.25;;;0.55;;
23812;SDS011;12087;45.190;5.688;2023-08-06T10:53:28;1.52;;;0.50;;
23812;SDS011;12087;45.190;5.688;2023-08-06T10:58:53;2.30;;;0.77;;
23812;SDS011;12087;45.190;5.688;2023-08-06T11:04:17;1.80;;;0.70;;
23812;SDS011;12087;45.190;5.688;2023-08-06T11:09:39;1.17;;;0.50;;
23812;SDS011;12087;45.190;5.688;2023-08-06T11:15:02;1.20;;;0.57;;
23812;SDS011;12087;45.190;5.688;2023-08-06T11:20:26;1.67;;;0.40;;
23812;SDS011;12087;45.190;5.688;2023-08-06T11:25:48;1.80;;;0.60;;
23812;SDS011;12087;45.190;5.688;2023-08-06T11:31:18;1.17;;;0.47;;
23812;SDS011;12087;45.190;5.688;2023-08-06T11:36:42;1.45;;;0.60;;
23812;SDS011;12087;45.190;5.688;2023-08-06T11:42:04;3.13;;;0.60;;
23812;SDS011;12087;45.190;5.688;2023-08-06T11:47:27;0.85;;;0.32;;
23812;SDS011;12087;45.190;5.688;2023-08-06T11:52:54;1.33;;;0.60;;
23812;SDS011;12087;45.190;5.688;2023-08-06T11:58:18;0.60;;;0.50;;
23812;SDS011;12087;45.190;5.688;2023-08-06T12:03:40;1.13;;;0.35;;
23812;SDS011;12087;45.190;5.688;2023-08-06T12:09:04;1.52;;;0.50;;
23812;SDS011;12087;45.190;5.688;2023-08-06T12:14:26;1.10;;;0.50;;
23812;SDS011;12087;45.190;5.688;2023-08-06T12:19:48;1.42;;;0.50;;
23812;SDS011;12087;45.190;5.688;2023-08-06T12:25:12;3.65;;;0.40;;
23812;SDS011;12087;45.190;5.688;2023-08-06T12:30:35;0.60;;;0.40;;
23812;SDS011;12087;45.190;5.688;2023-08-06T12:35:57;1.00;;;0.43;;
23812;SDS011;12087;45.190;5.688;2023-08-06T12:41:20;1.60;;;0.50;;
23812;SDS011;12087;45.190;5.688;2023-08-06T12:46:43;0.65;;;0.30;;
23812;SDS011;12087;45.190;5.688;2023-08-06T12:52:05;1.20;;;0.40;;
23812;SDS011;12087;45.190;5.688;2023-08-06T12:57:30;2.05;;;0.80;;
23812;SDS011;12087;45.190;5.688;2023-08-06T13:02:54;3.17;;;0.95;;
23812;SDS011;12087;45.190;5.688;2023-08-06T13:08:16;1.75;;;0.68;;
23812;SDS011;12087;45.190;5.688;2023-08-06T13:13:40;1.05;;;0.50;;
23812;SDS011;12087;45.190;5.688;2023-08-06T13:19:02;2.58;;;0.80;;
23812;SDS011;12087;45.190;5.688;2023-08-06T13:24:25;2.10;;;0.75;;
23812;SDS011;12087;45.190;5.688;2023-08-06T13:29:49;1.63;;;0.68;;
23812;SDS011;12087;45.190;5.688;2023-08-06T13:35:11;3.25;;;1.10;;
23812;SDS011;12087;45.190;5.688;2023-08-06T13:40:33;3.67;;;0.98;;
23812;SDS011;12087;45.190;5.688;2023-08-06T13:45:58;1.52;;;0.65;;
23812;SDS011;12087;45.190;5.688;2023-08-06T13:51:20;2.63;;;0.70;;
23812;SDS011;12087;45.190;5.688;2023-08-06T13:56:42;2.63;;;1.05;;
23812;SDS011;12087;45.190;5.688;2023-08-06T14:02:06;3.25;;;0.70;;
23812;SDS011;12087;45.190;5.688;2023-08-06T14:07:28;1.60;;;0.68;;
23812;SDS011;12087;45.190;5.688;2023-08-06T14:12:50;1.73;;;0.90;;
23812;SDS011;12087;45.190;5.688;2023-08-06T14:18:14;2.15;;;0.60;;
23812;SDS011;12087;45.190;5.688;2023-08-06T14:23:36;1.63;;;0.60;;
23812;SDS011;12087;45.190;5.688;2023-08-06T14:28:58;2.50;;;0.93;;
23812;SDS011;12087;45.190;5.688;2023-08-06T14:34:23;3.30;;;0.80;;
23812;SDS011;12087;45.190;5.688;2023-08-06T14:39:45;2.35;;;0.52;;
23812;SDS011;12087;45.190;5.688;2023-08-06T14:45:07;1.02;;;0.68;;
23812;SDS011;12087;45.190;5.688;2023-08-06T14:50:32;2.05;;;0.80;;
23812;SDS011;12087;45.190;5.688;2023-08-06T14:55:54;2.60;;;0.90;;
23812;SDS011;12087;45.190;5.688;2023-08-06T15:01:17;2.08;;;1.13;;
23812;SDS011;12087;45.190;5.688;2023-08-06T15:06:40;4.32;;;0.90;;
23812;SDS011;12087;45.190;5.688;2023-08-06T15:12:03;3.65;;;0.80;;
23812;SDS011;12087;45.190;5.688;2023-08-06T15:17:25;2.38;;;0.60;;
23812;SDS011;12087;45.190;5.688;2023-08-06T15:22:50;2.33;;;0.77;;
23812;SDS011;12087;45.190;5.688;2023-08-06T15:28:13;3.42;;;0.90;;
23812;SDS011;12087;45.190;5.688;2023-08-06T15:33:36;2.88;;;1.20;;
23812;SDS011;12087;45.190;5.688;2023-08-06T15:38:59;2.08;;;0.93;;
23812;SDS011;12087;45.190;5.688;2023-08-06T15:44:21;1.95;;;0.77;;
23812;SDS011;12087;45.190;5.688;2023-08-06T15:49:44;2.13;;;0.80;;
23812;SDS011;12087;45.190;5.688;2023-08-06T15:55:08;2.10;;;0.93;;
23812;SDS011;12087;45.190;5.688;2023-08-06T16:00:30;2.10;;;1.00;;
23812;SDS011;12087;45.190;5.688;2023-08-06T16:05:52;2.15;;;1.40;;
23812;SDS011;12087;45.190;5.688;2023-08-06T16:11:16;2.53;;;0.82;;
23812;SDS011;12087;45.190;5.688;2023-08-06T16:16:38;1.67;;;0.93;;
23812;SDS011;12087;45.190;5.688;2023-08-06T16:22:02;2.97;;;1.13;;
23812;SDS011;12087;45.190;5.688;2023-08-06T16:27:26;1.80;;;0.73;;
23812;SDS011;12087;45.190;5.688;2023-08-06T16:32:48;3.38;;;1.10;;
23812;SDS011;12087;45.190;5.688;2023-08-06T16:38:12;2.47;;;0.90;;
23812;SDS011;12087;45.190;5.688;2023-08-06T16:43:36;4.15;;;1.33;;
23812;SDS011;12087;45.190;5.688;2023-08-06T16:48:59;3.60;;;1.05;;
23812;SDS011;12087;45.190;5.688;2023-08-06T16:54:21;2.72;;;1.17;;
23812;SDS011;12087;45.190;5.688;2023-08-06T16:59:45;1.45;;;0.80;;
23812;SDS011;12087;45.190;5.688;2023-08-06T17:05:07;1.27;;;0.70;;
23812;SDS011;12087;45.190;5.688;2023-08-06T17:10:29;3.05;;;1.35;;
23812;SDS011;12087;45.190;5.688;2023-08-06T17:15:53;1.52;;;0.82;;
23812;SDS011;12087;45.190;5.688;2023-08-06T17:21:15;2.85;;;1.13;;
23812;SDS011;12087;45.190;5.688;2023-08-06T17:26:39;2.55;;;1.17;;
23812;SDS011;12087;45.190;5.688;2023-08-06T17:32:03;4.22;;;1.00;;
23812;SDS011;12087;45.190;5.688;2023-08-06T17:37:25;5.10;;;1.48;;
23812;SDS011;12087;45.190;5.688;2023-08-06T17:42:47;2.70;;;1.00;;
23812;SDS011;12087;45.190;5.688;2023-08-06T17:48:11;3.60;;;1.17;;
23812;SDS011;12087;45.190;5.688;2023-08-06T17:53:35;5.97;;;1.75;;
23812;SDS011;12087;45.190;5.688;2023-08-06T17:58:57;3.60;;;1.80;;
23812;SDS011;12087;45.190;5.688;2023-08-06T18:04:22;2.45;;;0.80;;
23812;SDS011;12087;45.190;5.688;2023-08-06T18:09:44;3.42;;;2.15;;
23812;SDS011;12087;45.190;5.688;2023-08-06T18:15:07;3.17;;;1.05;;
23812;SDS011;12087;45.190;5.688;2023-08-06T18:20:32;12.25;;;6.85;;
23812;SDS011;12087;45.190;5.688;2023-08-06T18:25:54;5.50;;;1.13;;
23812;SDS011;12087;45.190;5.688;2023-08-06T18:31:19;2.28;;;1.00;;
23812;SDS011;12087;45.190;5.688;2023-08-06T18:36:42;2.80;;;1.02;;
23812;SDS011;12087;45.190;5.688;2023-08-06T18:42:05;1.60;;;1.02;;
23812;SDS011;12087;45.190;5.688;2023-08-06T18:47:28;4.40;;;1.10;;
23812;SDS011;12087;45.190;5.688;2023-08-06T18:52:51;4.13;;;1.73;;
23812;SDS011;12087;45.190;5.688;2023-08-06T18:58:15;3.13;;;1.23;;
23812;SDS011;12087;45.190;5.688;2023-08-06T19:03:37;7.00;;;4.40;;
23812;SDS011;12087;45.190;5.688;2023-08-06T19:09:01;6.05;;;1.35;;
23812;SDS011;12087;45.190;5.688;2023-08-06T19:14:23;3.90;;;1.73;;
23812;SDS011;12087;45.190;5.688;2023-08-06T19:19:47;8.00;;;3.25;;
23812;SDS011;12087;45.190;5.688;2023-08-06T19:25:10;4.05;;;1.35;;
23812;SDS011;12087;45.190;5.688;2023-08-06T19:30:32;3.80;;;1.40;;
23812;SDS011;12087;45.190;5.688;2023-08-06T19:35:57;2.08;;;1.05;;
23812;SDS011;12087;45.190;5.688;2023-08-06T19:41:21;4.03;;;0.90;;
23812;SDS011;12087;45.190;5.688;2023-08-06T19:46:43;3.05;;;0.80;;
23812;SDS011;12087;45.190;5.688;2023-08-06T19:52:05;1.33;;;0.80;;
23812;SDS011;12087;45.190;5.688;2023-08-06T19:57:30;1.95;;;1.10;;
23812;SDS011;12087;45.190;5.688;2023-08-06T20:02:52;4.13;;;1.20;;
23812;SDS011;12087;45.190;5.688;2023-08-06T20:08:14;3.72;;;1.30;;
23812;SDS011;12087;45.190;5.688;2023-08-06T20:13:38;2.63;;;1.10;;
23812;SDS011;12087;45.190;5.688;2023-08-06T20:19:00;3.13;;;1.23;;
23812;SDS011;12087;45.190;5.688;2023-08-06T20:24:22;2.67;;;1.15;;
23812;SDS011;12087;45.190;5.688;2023-08-06T20:29:46;7.03;;;1.20;;
23812;SDS011;12087;45.190;5.688;2023-08-06T20:35:08;3.97;;;1.30;;
23812;SDS011;12087;45.190;5.688;2023-08-06T20:40:31;3.58;;;1.20;;
23812;SDS011;12087;45.190;5.688;2023-08-06T20:45:55;4.13;;;1.48;;
23812;SDS011;12087;45.190;5.688;2023-08-06T20:51:20;3.03;;;1.00;;
23812;SDS011;12087;45.190;5.688;2023-08-06T20:56:42;2.20;;;0.95;;
23812;SDS011;12087;45.190;5.688;2023-08-06T21:02:06;2.97;;;1.20;;
23812;SDS011;12087;45.190;5.688;2023-08-06T21:07:28;3.65;;;1.48;;
23812;SDS011;12087;45.190;5.688;2023-08-06T21:12:50;2.63;;;1.67;;
23812;SDS011;12087;45.190;5.688;2023-08-06T21:18:14;4.65;;;1.55;;
23812;SDS011;12087;45.190;5.688;2023-08-06T21:23:36;3.47;;;1.40;;
23812;SDS011;12087;45.190;5.688;2023-08-06T21:28:59;5.13;;;1.42;;
23812;SDS011;12087;45.190;5.688;2023-08-06T21:34:23;3.88;;;1.38;;
23812;SDS011;12087;45.190;5.688;2023-08-06T21:39:46;4.10;;;1.40;;
23812;SDS011;12087;45.190;5.688;2023-08-06T21:45:09;3.70;;;1.50;;
23812;SDS011;12087;45.190;5.688;2023-08-06T21:50:33;4.70;;;1.85;;
23812;SDS011;12087;45.190;5.688;2023-08-06T21:55:56;5.07;;;2.05;;
23812;SDS011;12087;45.190;5.688;2023-08-06T22:01:19;4.25;;;1.30;;
23812;SDS011;12087;45.190;5.688;2023-08-06T22:06:42;3.20;;;1.20;;
23812;SDS011;12087;45.190;5.688;2023-08-06T22:12:05;5.13;;;1.30;;
23812;SDS011;12087;45.190;5.688;2023-08-06T22:17:28;2.75;;;1.30;;
23812;SDS011;12087;45.190;5.688;2023-08-06T22:22:52;3.10;;;1.10;;
23812;SDS011;12087;45.190;5.688;2023-08-06T22:28:15;2.97;;;0.93;;
23812;SDS011;12087;45.190;5.688;2023-08-06T22:33:41;3.13;;;1.20;;
23812;SDS011;12087;45.190;5.688;2023-08-06T22:39:05;3.20;;;1.02;;
23812;SDS011;12087;45.190;5.688;2023-08-06T22:44:29;2.72;;;1.17;;
23812;SDS011;12087;45.190;5.688;2023-08-06T22:50:17;3.75;;;0.98;;
23812;SDS011;12087;45.190;5.688;2023-08-06T22:56:15;1.73;;;1.02;;
23812;SDS011;12087;45.190;5.688;2023-08-06T23:01:57;2.55;;;0.95;;
23812;SDS011;12087;45.190;5.688;2023-08-06T23:07:35;2.45;;;1.30;;
23812;SDS011;12087;45.190;5.688;2023-08-06T23:13:05;3.30;;;1.52;;
23812;SDS011;12087;45.190;5.688;2023-08-06T23:18:37;2.88;;;1.40;;
23812;SDS011;12087;45.190;5.688;2023-08-06T23:24:00;2.13;;;1.20;;
23812;SDS011;12087;45.190;5.688;2023-08-06T23:29:29;3.05;;;1.20;;
23812;SDS011;12087;45.190;5.688;2023-08-06T23:35:01;2.80;;;1.10;;
23812;SDS011;12087;45.190;5.688;2023-08-06T23:40:24;2.20;;;1.50;;
23812;SDS011;12087;45.190;5.688;2023-08-06T23:45:47;2.60;;;1.40;;
23812;SDS011;12087;45.190;5.688;2023-08-06T23:51:09;1.65;;;1.08;;
23812;SDS011;12087;45.190;5.688;2023-08-06T23:56:32;3.13;;;1.30;;
